createdAt,value
2019-06-10T00:02:10.930Z,68.43
2019-06-10T00:04:41.519Z,68.46
2019-06-10T00:07:11.783Z,68.90
2019-06-10T00:09:41.228Z,69.20
2019-06-10T00:12:12.741Z,69.21
2019-06-10T00:14:41.853Z,69.18
2019-06-10T00:17:11.232Z,69.43
2019-06-10T00:19:40.932Z,68.89
2019-06-10T00:22:11.494Z,69.09
2019-06-10T00:24:41.099Z,69.56
2019-06-10T00:27:11.707Z,70.07
2019-06-10T00:29:41.209Z,70.37
2019-06-10T00:32:13.041Z,70.15
2019-06-10T00:34:42.031Z,70.48
2019-06-10T00:37:14.487Z,70.81
2019-06-10T00:39:42.284Z,71.22
2019-06-10T00:42:14.943Z,70.98
2019-06-10T00:44:42.469Z,71.33
2019-06-10T00:47:14.825Z,71.49
2019-06-10T00:49:42.608Z,71.42
2019-06-10T00:52:13.820Z,71.44
2019-06-10T00:54:42.625Z,71.35
2019-06-10T00:57:12.466Z,71.89
2019-06-10T00:59:42.941Z,71.93
2019-06-10T01:02:14.046Z,72.42
2019-06-10T01:04:43.028Z,72.51
2019-06-10T01:07:14.775Z,72.75
2019-06-10T01:09:43.083Z,73.27
2019-06-10T01:12:14.757Z,73.70
2019-06-10T01:14:43.195Z,73.97
2019-06-10T01:17:14.068Z,73.75
2019-06-10T01:19:44.335Z,73.55
2019-06-10T01:22:14.206Z,73.77
2019-06-10T01:24:44.574Z,73.83
2019-06-10T01:27:15.093Z,74.02
2019-06-10T01:29:44.388Z,74.14
2019-06-10T01:32:15.042Z,74.14
2019-06-10T01:34:44.388Z,74.30
2019-06-10T01:37:14.744Z,74.63
2019-06-10T01:39:44.629Z,74.46
2019-06-10T01:42:14.426Z,74.31
2019-06-10T01:44:44.888Z,74.68
2019-06-10T01:47:14.675Z,74.78
2019-06-10T01:49:45.111Z,74.45
2019-06-10T01:52:15.189Z,75.03
2019-06-10T01:54:45.421Z,75.05
2019-06-10T01:57:16.929Z,75.34
2019-06-10T01:59:46.496Z,75.25
2019-06-10T02:02:23.856Z,75.05
2019-06-10T02:04:52.645Z,75.64
2019-06-10T02:07:23.071Z,75.76
2019-06-10T02:09:52.809Z,76.47
2019-06-10T02:12:24.381Z,76.49
2019-06-10T02:14:53.939Z,77.06
2019-06-10T02:17:24.081Z,77.36
2019-06-10T02:19:53.565Z,77.48
2019-06-10T02:22:24.201Z,78.25
2019-06-10T02:24:53.801Z,78.60
2019-06-10T02:27:23.288Z,78.79
2019-06-10T02:29:52.605Z,79.09
2019-06-10T02:32:31.275Z,79.18
2019-06-10T02:35:03.716Z,79.30
2019-06-10T02:37:31.750Z,79.49
2019-06-10T02:39:54.977Z,79.26
2019-06-10T02:42:36.097Z,79.28
2019-06-10T02:45:07.206Z,79.18
2019-06-10T02:47:37.859Z,79.25
2019-06-10T02:50:09.155Z,79.82
2019-06-10T02:52:38.956Z,80.24
2019-06-10T02:55:08.207Z,80.09
2019-06-10T02:57:40.348Z,80.06
2019-06-10T03:00:19.778Z,80.37
2019-06-10T03:02:44.564Z,80.79
2019-06-10T03:05:14.321Z,80.87
2019-06-10T03:07:44.312Z,80.65
2019-06-10T03:10:13.854Z,80.95
2019-06-10T03:12:43.109Z,81.14
2019-06-10T03:15:12.731Z,80.91
2019-06-10T03:17:42.911Z,81.02
2019-06-10T03:20:12.435Z,80.80
2019-06-10T03:22:42.318Z,81.05
2019-06-10T03:25:13.107Z,80.81
2019-06-10T03:27:42.603Z,80.72
2019-06-10T03:30:17.168Z,80.67
2019-06-10T03:32:46.620Z,80.42
2019-06-10T03:35:14.446Z,80.22
2019-06-10T03:37:43.616Z,80.20
2019-06-10T03:40:14.508Z,80.03
2019-06-10T03:42:43.743Z,80.17
2019-06-10T03:45:13.087Z,80.32
2019-06-10T03:47:42.844Z,80.08
2019-06-10T03:50:13.215Z,79.80
2019-06-10T03:52:43.256Z,80.14
2019-06-10T03:55:12.665Z,80.03
2019-06-10T03:57:42.881Z,80.02
2019-06-10T04:00:13.886Z,80.26
2019-06-10T04:02:43.479Z,80.05
2019-06-10T04:05:13.329Z,80.20
2019-06-10T04:07:42.916Z,80.02
2019-06-10T04:10:12.704Z,80.36
2019-06-10T04:12:43.519Z,80.69
2019-06-10T04:15:13.094Z,81.13
2019-06-10T04:17:42.755Z,80.89
2019-06-10T04:20:15.444Z,81.25
2019-06-10T04:22:44.444Z,81.33
2019-06-10T04:25:13.803Z,81.48
2019-06-10T04:27:43.034Z,81.65
2019-06-10T04:30:13.462Z,81.57
2019-06-10T04:32:43.236Z,81.70
2019-06-10T04:35:12.779Z,81.56
2019-06-10T04:37:42.782Z,81.56
2019-06-10T04:40:13.404Z,81.36
2019-06-10T04:42:43.556Z,81.40
2019-06-10T04:45:14.384Z,81.47
2019-06-10T04:47:43.573Z,80.92
2019-06-10T04:50:24.730Z,80.79
2019-06-10T04:52:44.402Z,81.69
2019-06-10T04:55:13.868Z,81.42
2019-06-10T04:57:45.208Z,81.89
2019-06-10T05:00:14.966Z,80.97
2019-06-10T05:02:44.132Z,80.40
2019-06-10T05:05:13.426Z,80.49
2019-06-10T05:07:42.874Z,79.71
2019-06-10T05:10:12.582Z,79.21
2019-06-10T05:12:43.310Z,78.18
2019-06-10T05:15:12.817Z,78.09
2019-06-10T05:17:43.773Z,78.20
2019-06-10T05:20:13.396Z,77.28
2019-06-10T05:22:42.634Z,77.84
2019-06-10T05:25:12.823Z,77.90
2019-06-10T05:27:42.900Z,78.35
2019-06-10T05:30:12.768Z,77.12
2019-06-10T05:32:43.271Z,77.56
2019-06-10T05:35:12.710Z,77.37
2019-06-10T05:37:42.403Z,77.70
2019-06-10T05:40:12.746Z,77.79
2019-06-10T05:42:42.587Z,77.60
2019-06-10T05:45:12.372Z,76.83
2019-06-10T05:47:42.730Z,76.89
2019-06-10T05:50:14.481Z,78.07
2019-06-10T05:52:43.784Z,77.70
2019-06-10T05:55:13.120Z,77.04
2019-06-10T05:57:42.965Z,76.32
2019-06-10T06:00:14.938Z,77.09
2019-06-10T06:02:43.406Z,77.39
2019-06-10T06:05:12.976Z,77.25
2019-06-10T06:07:42.542Z,76.53
2019-06-10T06:10:13.028Z,76.31
2019-06-10T06:12:42.666Z,76.59
2019-06-10T06:15:12.958Z,75.64
2019-06-10T06:17:43.193Z,74.81
2019-06-10T06:20:13.408Z,75.21
2019-06-10T06:22:43.014Z,74.87
2019-06-10T06:25:15.228Z,74.94
2019-06-10T06:27:43.510Z,74.70
2019-06-10T06:30:18.602Z,73.43
2019-06-10T06:32:44.325Z,74.07
2019-06-10T06:35:13.894Z,73.13
2019-06-10T06:37:43.372Z,72.80
2019-06-10T06:40:13.374Z,71.70
2019-06-10T06:42:43.443Z,71.29
2019-06-10T06:45:13.026Z,71.24
2019-06-10T06:47:43.720Z,71.08
2019-06-10T06:50:13.386Z,70.01
2019-06-10T06:53:15.493Z,70.18
2019-06-10T06:55:13.801Z,69.73
2019-06-10T06:57:43.426Z,69.79
2019-06-10T07:00:37.354Z,69.35
2019-06-10T07:02:44.314Z,69.10
2019-06-10T07:05:13.480Z,69.11
2019-06-10T07:07:43.345Z,69.17
2019-06-10T07:10:14.643Z,67.55
2019-06-10T07:12:44.722Z,67.04
2019-06-10T07:15:14.023Z,66.67
2019-06-10T07:17:45.588Z,66.10
2019-06-10T07:20:14.311Z,65.78
2019-06-10T07:22:46.593Z,64.39
2019-06-10T07:25:14.519Z,62.84
2019-06-10T07:27:46.469Z,63.17
2019-06-10T07:30:15.329Z,61.43
2019-06-10T07:32:47.282Z,60.92
2019-06-10T07:35:15.489Z,60.32
2019-06-10T07:37:46.070Z,58.97
2019-06-10T07:40:15.535Z,57.76
2019-06-10T07:42:45.422Z,56.69
2019-06-10T07:45:15.950Z,57.79
2019-06-10T07:47:45.799Z,59.19
2019-06-10T07:50:15.960Z,58.13
2019-06-10T07:52:46.881Z,56.57
2019-06-10T07:55:16.785Z,56.47
2019-06-10T07:57:45.979Z,58.24
2019-06-10T08:00:15.733Z,58.23
2019-06-10T08:02:46.122Z,58.67
2019-06-10T08:05:15.717Z,59.38
2019-06-10T08:07:47.235Z,56.87
2019-06-10T08:10:16.134Z,57.35
2019-06-10T08:12:46.999Z,56.81
2019-06-10T08:15:16.263Z,56.93
2019-06-10T08:17:45.790Z,57.87
2019-06-10T08:20:17.795Z,57.92
2019-06-10T08:22:54.001Z,56.16
2019-06-10T08:25:18.290Z,56.59
2019-06-10T08:27:49.255Z,55.44
2019-06-10T08:30:24.007Z,55.29
2019-06-10T08:32:53.344Z,54.84
2019-06-10T08:35:35.857Z,54.52
2019-06-10T08:37:52.918Z,56.08
2019-06-10T08:40:22.968Z,55.57
2019-06-10T08:42:53.756Z,55.95
2019-06-10T08:45:23.265Z,55.32
2019-06-10T08:47:54.214Z,54.43
2019-06-10T08:50:24.876Z,54.02
2019-06-10T08:53:10.281Z,52.88
2019-06-10T08:55:25.312Z,51.99
2019-06-10T08:57:56.634Z,52.54
2019-06-10T09:00:26.312Z,50.77
2019-06-10T09:02:55.494Z,50.03
2019-06-10T09:05:25.438Z,49.37
2019-06-10T09:07:54.674Z,49.49
2019-06-10T09:10:23.883Z,48.98
2019-06-10T09:12:54.672Z,49.69
2019-06-10T09:15:24.272Z,49.27
2019-06-10T09:17:56.145Z,50.02
2019-06-10T09:20:25.726Z,50.52
2019-06-10T09:23:14.984Z,52.70
2019-06-10T09:25:25.826Z,49.69
2019-06-10T09:27:55.048Z,52.06
2019-06-10T09:30:24.581Z,51.71
2019-06-10T09:32:56.809Z,50.25
2019-06-10T09:35:24.796Z,49.51
2019-06-10T09:37:55.710Z,48.35
2019-06-10T09:40:33.866Z,48.73
2019-06-10T09:43:03.176Z,49.42
2019-06-10T09:45:33.232Z,47.56
2019-06-10T09:48:05.220Z,48.27
2019-06-10T09:50:48.549Z,48.14
2019-06-10T09:53:26.681Z,46.20
2019-06-10T09:55:46.297Z,47.75
2019-06-10T09:58:13.379Z,46.29
2019-06-10T10:00:47.352Z,47.27
2019-06-10T10:03:12.506Z,48.23
2019-06-10T10:05:45.543Z,48.24
2019-06-10T10:08:12.697Z,46.17
2019-06-10T10:10:43.224Z,48.77
2019-06-10T10:13:13.055Z,45.38
2019-06-10T10:15:41.874Z,44.59
2019-06-10T10:18:13.199Z,44.46
2019-06-10T10:20:44.869Z,47.25
2019-06-10T10:23:13.018Z,45.68
2019-06-10T10:25:43.334Z,46.09
2019-06-10T10:28:10.555Z,46.18
2019-06-10T10:30:38.911Z,47.32
2019-06-10T10:33:07.223Z,45.78
2019-06-10T10:35:35.449Z,47.05
2019-06-10T10:38:03.838Z,47.92
2019-06-10T10:40:32.737Z,47.10
2019-06-10T10:43:22.468Z,45.87
2019-06-10T10:45:32.543Z,44.92
2019-06-10T10:48:02.507Z,46.24
2019-06-10T10:50:34.025Z,48.71
2019-06-10T10:53:01.606Z,49.63
2019-06-10T10:55:29.964Z,46.77
2019-06-10T10:57:58.204Z,45.36
2019-06-10T11:00:28.012Z,46.63
2019-06-10T11:02:56.273Z,46.24
2019-06-10T11:05:34.322Z,46.88
2019-06-10T11:08:04.343Z,45.70
2019-06-10T11:10:32.981Z,46.53
2019-06-10T11:13:05.420Z,45.23
2019-06-10T11:15:34.001Z,45.52
2019-06-10T11:18:03.944Z,46.08
2019-06-10T11:20:33.676Z,45.01
2019-06-10T11:23:02.949Z,42.97
2019-06-10T11:25:33.303Z,42.54
2019-06-10T11:28:04.134Z,41.65
2019-06-10T11:30:32.383Z,43.37
2019-06-10T11:33:03.339Z,42.34
2019-06-10T11:35:30.764Z,42.02
2019-06-10T11:37:59.021Z,41.25
2019-06-10T11:40:27.275Z,41.34
2019-06-10T11:42:58.027Z,41.36
2019-06-10T11:45:25.439Z,38.98
2019-06-10T11:47:55.494Z,40.13
2019-06-10T11:50:23.561Z,39.57
2019-06-10T11:52:55.454Z,40.13
2019-06-10T11:55:23.758Z,40.43
2019-06-10T11:57:54.920Z,41.81
2019-06-10T12:00:23.202Z,40.51
2019-06-10T12:02:53.767Z,41.30
2019-06-10T12:05:23.483Z,40.76
2019-06-10T12:07:56.000Z,41.09
2019-06-10T12:10:23.320Z,41.82
2019-06-10T12:12:55.478Z,42.43
2019-06-10T12:15:22.721Z,42.52
2019-06-10T12:17:58.490Z,42.36
2019-06-10T12:20:22.824Z,42.50
2019-06-10T12:22:56.273Z,42.21
2019-06-10T12:25:32.554Z,42.67
2019-06-10T12:27:55.853Z,40.00
2019-06-10T12:30:22.466Z,41.18
2019-06-10T12:32:54.475Z,39.61
2019-06-10T12:35:23.019Z,41.14
2019-06-10T12:37:55.034Z,41.26
2019-06-10T12:40:21.773Z,43.26
2019-06-10T12:42:52.486Z,44.16
2019-06-10T12:45:19.922Z,41.88
2019-06-10T12:47:48.149Z,42.84
2019-06-10T12:50:16.645Z,41.40
2019-06-10T12:52:44.892Z,43.20
2019-06-10T12:55:13.664Z,45.04
2019-06-10T12:57:42.815Z,42.91
2019-06-10T13:00:20.585Z,43.06
2019-06-10T13:02:42.731Z,41.10
2019-06-10T13:05:12.223Z,39.52
2019-06-10T13:07:42.687Z,38.62
2019-06-10T13:10:12.205Z,39.73
2019-06-10T13:12:42.886Z,40.22
2019-06-10T13:15:12.710Z,38.47
2019-06-10T13:17:44.146Z,38.89
2019-06-10T13:20:13.587Z,39.22
2019-06-10T13:22:43.224Z,36.44
2019-06-10T13:25:13.361Z,34.98
2019-06-10T13:27:42.829Z,34.92
2019-06-10T13:30:11.130Z,34.45
2019-06-10T13:32:39.408Z,37.59
2019-06-10T13:35:08.149Z,38.42
2019-06-10T13:37:36.355Z,38.18
2019-06-10T13:40:08.114Z,38.82
2019-06-10T13:42:36.896Z,36.82
2019-06-10T13:45:06.773Z,35.32
2019-06-10T13:47:34.364Z,33.79
2019-06-10T13:50:07.344Z,32.64
2019-06-10T13:52:32.735Z,30.90
2019-06-10T13:55:03.458Z,30.70
2019-06-10T13:57:32.234Z,32.13
2019-06-10T14:00:04.226Z,33.94
2019-06-10T14:02:32.329Z,34.15
2019-06-10T14:05:06.813Z,35.58
2019-06-10T14:07:32.409Z,35.11
2019-06-10T14:10:02.967Z,35.06
2019-06-10T14:12:32.297Z,34.02
2019-06-10T14:15:02.567Z,35.36
2019-06-10T14:17:32.888Z,37.89
2019-06-10T14:20:02.153Z,37.61
2019-06-10T14:22:32.859Z,39.21
2019-06-10T14:25:06.425Z,39.13
2019-06-10T14:27:34.233Z,38.16
2019-06-10T14:30:04.981Z,35.09
2019-06-10T14:32:34.385Z,33.90
2019-06-10T14:35:06.667Z,34.36
2019-06-10T14:37:39.112Z,33.83
2019-06-10T14:40:08.767Z,34.27
2019-06-10T14:42:38.112Z,36.23
2019-06-10T14:45:08.721Z,34.65
2019-06-10T14:47:37.993Z,33.24
2019-06-10T14:50:08.838Z,32.45
2019-06-10T14:52:38.029Z,29.75
2019-06-10T14:55:09.185Z,30.39
2019-06-10T14:57:38.603Z,30.30
2019-06-10T15:00:09.660Z,31.42
2019-06-10T15:02:39.135Z,30.54
2019-06-10T15:05:09.271Z,30.45
2019-06-10T15:07:38.549Z,31.79
2019-06-10T15:10:12.047Z,29.83
2019-06-10T15:12:42.402Z,30.62
2019-06-10T15:15:12.147Z,32.33
2019-06-10T15:17:43.066Z,30.75
2019-06-10T15:20:13.614Z,31.30
2019-06-10T15:22:43.191Z,33.04
2019-06-10T15:25:15.235Z,33.45
2019-06-10T15:27:43.398Z,34.10
2019-06-10T15:30:21.611Z,33.72
2019-06-10T15:32:43.515Z,34.68
2019-06-10T15:35:16.553Z,33.75
2019-06-10T15:37:44.062Z,35.48
2019-06-10T15:40:14.079Z,34.60
2019-06-10T15:42:44.247Z,34.32
2019-06-10T15:45:17.652Z,35.72
2019-06-10T15:47:44.608Z,38.33
2019-06-10T15:50:15.832Z,40.26
2019-06-10T15:52:45.082Z,40.26
2019-06-10T15:55:33.504Z,40.17
2019-06-10T15:57:46.529Z,41.05
2019-06-10T16:00:20.045Z,41.90
2019-06-10T16:02:47.234Z,41.65
2019-06-10T16:05:17.788Z,40.41
2019-06-10T16:07:47.292Z,40.70
2019-06-10T16:10:19.603Z,41.31
2019-06-10T16:12:47.502Z,42.01
2019-06-10T16:15:18.169Z,42.92
2019-06-10T16:17:48.024Z,41.97
2019-06-10T16:20:19.428Z,43.08
2019-06-10T16:22:48.790Z,42.75
2019-06-10T16:25:17.982Z,42.53
2019-06-10T16:27:51.081Z,43.53
2019-06-10T16:30:18.500Z,45.57
2019-06-10T16:32:47.858Z,46.07
2019-06-10T16:35:17.278Z,45.20
2019-06-10T16:37:46.474Z,45.54
2019-06-10T16:40:17.144Z,45.49
2019-06-10T16:42:46.408Z,46.30
2019-06-10T16:45:18.910Z,46.29
2019-06-10T16:47:46.845Z,46.73
2019-06-10T16:50:17.226Z,47.64
2019-06-10T16:52:46.524Z,47.60
2019-06-10T16:55:16.055Z,47.83
2019-06-10T16:57:58.562Z,47.88
2019-06-10T17:00:16.589Z,47.08
2019-06-10T17:02:47.318Z,47.61
2019-06-10T17:05:16.819Z,47.32
2019-06-10T17:07:46.149Z,47.31
2019-06-10T17:10:15.596Z,47.38
2019-06-10T17:12:46.554Z,48.32
2019-06-10T17:15:18.867Z,48.23
2019-06-10T17:17:48.530Z,48.74
2019-06-10T17:20:18.604Z,48.58
2019-06-10T17:22:48.072Z,48.36
2019-06-10T17:25:17.483Z,48.40
2019-06-10T17:27:46.817Z,48.45
2019-06-10T17:30:16.949Z,48.11
2019-06-10T17:32:46.148Z,48.94
2019-06-10T17:35:15.427Z,48.23
2019-06-10T17:37:43.781Z,49.77
2019-06-10T17:40:13.743Z,49.90
2019-06-10T17:42:42.967Z,50.76
2019-06-10T17:45:12.869Z,51.30
2019-06-10T17:47:42.663Z,51.53
2019-06-10T17:50:12.603Z,51.19
2019-06-10T17:52:42.696Z,51.49
2019-06-10T17:55:12.583Z,50.91
2019-06-10T17:57:43.002Z,50.91
2019-06-10T18:00:14.967Z,51.40
2019-06-10T18:02:44.065Z,51.68
2019-06-10T18:05:13.554Z,52.02
2019-06-10T18:07:43.132Z,51.86
2019-06-10T18:10:13.207Z,52.70
2019-06-10T18:12:42.946Z,52.56
2019-06-10T18:15:12.741Z,53.09
2019-06-10T18:17:42.755Z,52.72
2019-06-10T18:20:15.820Z,53.70
2019-06-10T18:22:46.714Z,53.03
2019-06-10T18:25:17.971Z,54.80
2019-06-10T18:27:47.286Z,55.14
2019-06-10T18:30:17.944Z,56.43
2019-06-10T18:32:47.646Z,59.80
2019-06-10T18:35:17.388Z,60.91
2019-06-10T18:37:46.936Z,65.96
2019-06-10T18:40:16.447Z,68.43
2019-06-10T18:42:47.040Z,72.26
2019-06-10T18:45:16.932Z,77.30
2019-06-10T18:47:49.115Z,82.69
2019-06-10T18:50:18.719Z,85.18
2019-06-10T18:52:48.509Z,86.54
2019-06-10T18:55:17.226Z,87.43
2019-06-10T18:57:46.062Z,88.68
2019-06-10T19:00:14.906Z,89.13
2019-06-10T19:02:44.241Z,89.52
2019-06-10T19:05:13.152Z,89.99
2019-06-10T19:07:46.726Z,90.68
2019-06-10T19:10:14.110Z,91.13
2019-06-10T19:12:42.678Z,91.46
2019-06-10T19:15:12.139Z,91.78
2019-06-10T19:17:43.970Z,92.07
2019-06-10T19:20:12.920Z,92.35
2019-06-10T19:22:43.216Z,92.68
2019-06-10T19:25:12.728Z,93.25
2019-06-10T19:27:45.997Z,93.12
2019-06-10T19:30:15.582Z,93.05
2019-06-10T19:32:44.447Z,93.46
2019-06-10T19:35:13.659Z,93.73
2019-06-10T19:37:42.542Z,93.80
2019-06-10T19:40:13.329Z,93.46
2019-06-10T19:42:44.504Z,93.80
2019-06-10T19:45:14.864Z,93.75
2019-06-10T19:47:45.550Z,93.79
2019-06-10T19:50:14.521Z,94.07
2019-06-10T19:52:45.719Z,94.08
2019-06-10T19:55:15.989Z,94.37
2019-06-10T19:57:44.303Z,94.45
2019-06-10T20:00:13.393Z,94.67
2019-06-10T20:02:46.533Z,94.84
2019-06-10T20:05:13.372Z,94.97
2019-06-10T20:07:48.441Z,95.24
2019-06-10T20:10:15.859Z,95.35
2019-06-10T20:12:46.649Z,95.28
2019-06-10T20:15:22.682Z,95.51
2019-06-10T20:17:52.550Z,95.67
2019-06-10T20:20:25.076Z,95.78
2019-06-10T20:22:56.598Z,95.96
2019-06-10T20:25:24.548Z,95.81
2019-06-10T20:27:53.574Z,95.51
2019-06-10T20:30:28.320Z,95.73
2019-06-10T20:32:55.949Z,95.57
2019-06-10T20:35:23.148Z,95.79
2019-06-10T20:37:53.818Z,95.64
2019-06-10T20:40:22.064Z,95.54
2019-06-10T20:42:50.626Z,95.25
2019-06-10T20:45:19.043Z,95.04
2019-06-10T20:47:47.961Z,95.18
2019-06-10T20:50:16.641Z,95.31
2019-06-10T20:52:48.999Z,95.29
2019-06-10T20:55:17.369Z,95.21
2019-06-10T20:57:56.610Z,95.29
2019-06-10T21:00:22.904Z,95.08
2019-06-10T21:02:49.090Z,95.22
2019-06-10T21:05:21.869Z,95.29
2019-06-10T21:07:52.801Z,95.42
2019-06-10T21:10:22.616Z,95.33
2019-06-10T21:12:51.067Z,95.36
2019-06-10T21:15:19.361Z,95.26
2019-06-10T21:17:49.127Z,95.05
2019-06-10T21:20:19.765Z,94.95
2019-06-10T21:22:49.012Z,94.69
2019-06-10T21:25:17.301Z,94.62
2019-06-10T21:27:46.795Z,94.70
2019-06-10T21:30:15.535Z,94.56
2019-06-10T21:32:45.674Z,94.51
2019-06-10T21:35:14.076Z,94.59
2019-06-10T21:37:45.089Z,94.60
2019-06-10T21:40:12.761Z,94.81
2019-06-10T21:42:41.652Z,94.99
2019-06-10T21:45:12.545Z,95.12
2019-06-10T21:47:42.836Z,95.36
2019-06-10T21:50:12.402Z,95.50
2019-06-10T21:52:43.080Z,95.57
2019-06-10T21:55:12.997Z,95.50
2019-06-10T21:57:42.603Z,95.12
2019-06-10T22:00:13.350Z,95.21
2019-06-10T22:02:42.760Z,95.16
2019-06-10T22:05:12.315Z,95.37
2019-06-10T22:07:42.288Z,95.51
2019-06-10T22:10:12.714Z,95.45
2019-06-10T22:12:42.205Z,95.42
2019-06-10T22:15:12.275Z,95.34
2019-06-10T22:17:42.309Z,95.31
2019-06-10T22:20:12.324Z,95.48
2019-06-10T22:22:42.689Z,95.32
2019-06-10T22:25:13.023Z,95.35
2019-06-10T22:27:42.099Z,95.25
2019-06-10T22:30:11.571Z,95.07
2019-06-10T22:32:40.022Z,95.18
2019-06-10T22:35:08.518Z,95.44
2019-06-10T22:37:36.862Z,95.56
2019-06-10T22:40:05.233Z,95.53
2019-06-10T22:42:33.924Z,95.54
2019-06-10T22:45:03.785Z,95.59
2019-06-10T22:47:32.439Z,95.71
2019-06-10T22:50:07.147Z,95.87
2019-06-10T22:52:32.176Z,96.12
2019-06-10T22:55:02.987Z,96.45
2019-06-10T22:57:30.270Z,96.50
2019-06-10T22:59:59.429Z,96.37
2019-06-10T23:02:27.769Z,96.49
2019-06-10T23:04:58.020Z,96.60
2019-06-10T23:07:26.775Z,96.88
2019-06-10T23:09:56.351Z,96.87
2019-06-10T23:12:24.902Z,96.63
2019-06-10T23:14:53.676Z,96.45
2019-06-10T23:17:23.016Z,96.32
2019-06-10T23:19:53.584Z,96.68
2019-06-10T23:22:22.028Z,96.84
2019-06-10T23:24:51.514Z,96.85
2019-06-10T23:27:22.192Z,97.03
2019-06-10T23:29:50.528Z,97.02
2019-06-10T23:32:19.558Z,97.18
2019-06-10T23:34:47.865Z,97.34
2019-06-10T23:37:16.122Z,97.52
2019-06-10T23:39:44.348Z,97.67
2019-06-10T23:42:12.623Z,97.66
2019-06-10T23:44:40.987Z,97.56
2019-06-10T23:47:09.228Z,97.60
2019-06-10T23:49:37.505Z,97.69
2019-06-10T23:52:05.981Z,97.82
2019-06-10T23:54:34.424Z,98.01
2019-06-10T23:57:05.511Z,98.06
2019-06-10T23:59:33.293Z,97.86
